Time;durP1;ratioP1;P1;durP2;ratioP2;P2;SDS_P1;SDS_P2;PMS_P1;PMS_P2;Temp;Humidity;BMP_temperature;BMP_pressure;BME280_temperature;BME280_humidity;BME280_pressure;Samples;Min_cycle;Max_cycle;Signal;HPM_P1;HPM_P2
2022/09/21 00:02:05;;;;;;;11.97;10.90;;;;;;;;;;5085006;28;20227;-82
2022/09/21 00:04:33;;;;;;;11.52;10.82;;;;;;;;;;5085267;28;20457;-82
2022/09/21 00:07:00;;;;;;;11.63;11.03;;;;;;;;;;5085476;28;20206;-82
2022/09/21 00:09:27;;;;;;;11.98;11.23;;;;;;;;;;5084146;28;20461;-82
2022/09/21 00:11:55;;;;;;;12.88;11.45;;;;;;;;;;5085133;28;20209;-82
2022/09/21 00:14:24;;;;;;;11.13;10.27;;;;;;;;;;5085111;28;20204;-82
2022/09/21 00:16:52;;;;;;;12.27;11.68;;;;;;;;;;5085073;28;20221;-82
2022/09/21 00:19:19;;;;;;;11.63;10.95;;;;;;;;;;5085836;28;20218;-82
2022/09/21 00:21:47;;;;;;;11.87;11.27;;;;;;;;;;5084134;28;20213;-82
2022/09/21 00:24:15;;;;;;;13.32;12.38;;;;;;;;;;5084730;28;20451;-82
2022/09/21 00:26:42;;;;;;;12.10;11.40;;;;;;;;;;5084572;28;20541;-82
2022/09/21 00:29:12;;;;;;;12.55;11.95;;;;;;;;;;5084478;28;20443;-82
2022/09/21 00:31:41;;;;;;;12.97;12.27;;;;;;;;;;5083980;28;20240;-82
2022/09/21 00:34:09;;;;;;;11.50;10.93;;;;;;;;;;5083831;28;20493;-82
2022/09/21 00:36:36;;;;;;;12.47;11.77;;;;;;;;;;5085238;28;20222;-82
2022/09/21 00:39:04;;;;;;;12.82;12.10;;;;;;;;;;5084773;28;20448;-82
2022/09/21 00:41:32;;;;;;;12.75;11.80;;;;;;;;;;5084749;28;20214;-82
2022/09/21 00:44:18;;;;;;;12.45;11.85;;;;;;;;;;5084039;28;20317;-82
2022/09/21 00:46:50;;;;;;;13.20;12.02;;;;;;;;;;5084783;28;20202;-83
2022/09/21 00:49:18;;;;;;;12.33;11.83;;;;;;;;;;5084835;28;20204;-83
2022/09/21 00:51:46;;;;;;;12.80;12.10;;;;;;;;;;5082994;28;20471;-83
2022/09/21 00:54:15;;;;;;;14.18;13.20;;;;;;;;;;5084687;28;20205;-82
2022/09/21 00:56:43;;;;;;;12.32;11.60;;;;;;;;;;5084762;28;20577;-82
2022/09/21 00:59:12;;;;;;;14.05;12.80;;;;;;;;;;5084329;28;20207;-83
2022/09/21 01:01:41;;;;;;;13.52;12.82;;;;;;;;;;5084374;28;20297;-83
2022/09/21 01:04:12;;;;;;;13.30;12.45;;;;;;;;;;5083607;28;20225;-82
2022/09/21 01:06:40;;;;;;;12.55;11.85;;;;;;;;;;5084034;28;20190;-82
2022/09/21 01:09:08;;;;;;;12.43;11.93;;;;;;;;;;5084231;28;20258;-82
2022/09/21 01:11:38;;;;;;;12.57;11.98;;;;;;;;;;5083413;28;20214;-83
2022/09/21 01:14:12;;;;;;;12.82;12.10;;;;;;;;;;5083231;28;20220;-82
2022/09/21 01:16:44;;;;;;;13.60;12.60;;;;;;;;;;5083812;28;20230;-83
2022/09/21 01:19:18;;;;;;;14.10;12.98;;;;;;;;;;5084397;28;20206;-82
2022/09/21 01:21:51;;;;;;;13.30;12.65;;;;;;;;;;5083012;28;20194;-81
2022/09/21 01:24:31;;;;;;;13.15;12.60;;;;;;;;;;5082788;28;20237;-83
2022/09/21 01:27:16;;;;;;;14.45;13.50;;;;;;;;;;5083753;28;20212;-82
2022/09/21 01:29:46;;;;;;;14.23;13.40;;;;;;;;;;5083758;28;20213;-82
2022/09/21 01:32:15;;;;;;;14.07;13.18;;;;;;;;;;5083163;28;20294;-82
2022/09/21 01:34:46;;;;;;;13.85;13.15;;;;;;;;;;5083304;28;20248;-82
2022/09/21 01:37:15;;;;;;;18.35;15.07;;;;;;;;;;5082931;28;20558;-81
2022/09/21 01:39:45;;;;;;;14.70;13.80;;;;;;;;;;5083483;28;20217;-82
2022/09/21 01:42:14;;;;;;;14.70;13.90;;;;;;;;;;5083268;28;20226;-82
2022/09/21 01:44:43;;;;;;;16.33;15.10;;;;;;;;;;5082119;28;20237;-82
2022/09/21 01:47:13;;;;;;;15.43;14.33;;;;;;;;;;5083657;28;20441;-82
2022/09/21 01:49:42;;;;;;;15.50;14.60;;;;;;;;;;5082828;28;20471;-82
2022/09/21 01:52:15;;;;;;;15.45;14.55;;;;;;;;;;5082287;28;20222;-82
2022/09/21 01:54:44;;;;;;;15.98;15.02;;;;;;;;;;5083049;28;20207;-82
2022/09/21 01:57:13;;;;;;;15.20;14.50;;;;;;;;;;5083356;28;20228;-83
2022/09/21 01:59:46;;;;;;;15.65;14.65;;;;;;;;;;5082990;28;20276;-82
2022/09/21 02:02:18;;;;;;;15.48;14.48;;;;;;;;;;5082675;28;20237;-83
2022/09/21 02:04:45;;;;;;;14.95;14.15;;;;;;;;;;5082404;28;20206;-82
2022/09/21 02:07:12;;;;;;;14.82;13.93;;;;;;;;;;5082870;28;20201;-82
2022/09/21 02:09:40;;;;;;;14.32;13.73;;;;;;;;;;5083043;28;20210;-82
2022/09/21 02:12:08;;;;;;;15.50;14.40;;;;;;;;;;5082169;28;20229;-82
2022/09/21 02:14:38;;;;;;;15.02;14.25;;;;;;;;;;5083284;28;20233;-82
2022/09/21 02:17:10;;;;;;;14.77;14.07;;;;;;;;;;5083377;28;20229;-82
2022/09/21 02:19:45;;;;;;;15.50;14.70;;;;;;;;;;5082478;28;20193;-82
2022/09/21 02:22:14;;;;;;;15.50;14.80;;;;;;;;;;5081544;28;20231;-82
2022/09/21 02:24:43;;;;;;;15.57;14.80;;;;;;;;;;5083303;28;20214;-85
2022/09/21 02:27:15;;;;;;;16.95;15.73;;;;;;;;;;5082413;28;20201;-82
2022/09/21 02:29:49;;;;;;;16.00;15.30;;;;;;;;;;5082449;28;20190;-82
2022/09/21 02:32:22;;;;;;;16.88;15.88;;;;;;;;;;5081074;28;20696;-82
2022/09/21 02:34:54;;;;;;;17.85;16.50;;;;;;;;;;5082409;28;20209;-82
2022/09/21 02:37:24;;;;;;;16.38;15.45;;;;;;;;;;5083101;28;20209;-82
2022/09/21 02:39:55;;;;;;;17.35;16.40;;;;;;;;;;5082929;28;20217;-82
2022/09/21 02:42:26;;;;;;;19.23;17.63;;;;;;;;;;5081492;28;20230;-83
2022/09/21 02:44:58;;;;;;;17.60;16.50;;;;;;;;;;5082670;28;20194;-82
2022/09/21 02:47:28;;;;;;;17.05;15.85;;;;;;;;;;5082167;28;20559;-82
2022/09/21 02:49:58;;;;;;;17.80;16.70;;;;;;;;;;5082617;28;20558;-82
2022/09/21 02:52:27;;;;;;;18.60;17.40;;;;;;;;;;5081577;28;20218;-82
2022/09/21 02:54:55;;;;;;;17.98;16.70;;;;;;;;;;5081926;28;20232;-82
2022/09/21 02:57:24;;;;;;;18.48;17.48;;;;;;;;;;5082151;28;20226;-82
2022/09/21 02:59:51;;;;;;;19.08;17.50;;;;;;;;;;5082680;28;20697;-82
2022/09/21 03:02:19;;;;;;;17.75;16.85;;;;;;;;;;5081994;28;20239;-82
2022/09/21 03:04:48;;;;;;;18.63;17.37;;;;;;;;;;5082617;28;20205;-82
2022/09/21 03:07:17;;;;;;;18.67;17.67;;;;;;;;;;5082887;28;20533;-82
2022/09/21 03:09:44;;;;;;;19.55;18.48;;;;;;;;;;5082488;28;20578;-82
2022/09/21 03:12:12;;;;;;;18.85;17.85;;;;;;;;;;5081771;28;20232;-82
2022/09/21 03:14:39;;;;;;;19.30;18.08;;;;;;;;;;5081784;28;20189;-83
2022/09/21 03:17:07;;;;;;;18.50;17.60;;;;;;;;;;5082545;28;20227;-83
2022/09/21 03:19:35;;;;;;;17.98;16.98;;;;;;;;;;5082292;28;20213;-82
2022/09/21 03:22:03;;;;;;;18.05;17.05;;;;;;;;;;5080660;28;20230;-82
2022/09/21 03:24:47;;;;;;;18.67;17.52;;;;;;;;;;5082163;28;20755;-81
2022/09/21 03:27:14;;;;;;;18.95;17.95;;;;;;;;;;5082345;28;20181;-82
2022/09/21 03:29:42;;;;;;;19.90;18.70;;;;;;;;;;5081431;28;20215;-82
2022/09/21 03:32:09;;;;;;;20.65;19.45;;;;;;;;;;5081500;28;20230;-82
2022/09/21 03:34:37;;;;;;;19.80;18.70;;;;;;;;;;5082087;28;20205;-82
2022/09/21 03:37:05;;;;;;;21.75;19.95;;;;;;;;;;5081399;28;20605;-82
2022/09/21 03:39:34;;;;;;;20.55;18.55;;;;;;;;;;5081663;28;20212;-82
2022/09/21 03:42:02;;;;;;;20.17;19.05;;;;;;;;;;5080511;28;20245;-82
2022/09/21 03:44:30;;;;;;;20.17;18.98;;;;;;;;;;5082543;28;20247;-82
2022/09/21 03:46:57;;;;;;;19.90;18.80;;;;;;;;;;5085064;28;20673;-82
2022/09/21 03:49:24;;;;;;;20.38;18.95;;;;;;;;;;5085687;28;20623;-82
2022/09/21 03:51:52;;;;;;;20.25;18.95;;;;;;;;;;5083674;28;20217;-82
2022/09/21 03:54:19;;;;;;;20.30;19.25;;;;;;;;;;5085078;28;20194;-82
2022/09/21 03:56:48;;;;;;;20.20;18.80;;;;;;;;;;5085856;28;20201;-82
2022/09/21 03:59:15;;;;;;;19.45;18.45;;;;;;;;;;5085832;28;20217;-82
2022/09/21 04:01:43;;;;;;;20.17;18.77;;;;;;;;;;5084731;28;20216;-82
2022/09/21 04:04:10;;;;;;;19.80;18.80;;;;;;;;;;5084866;28;20217;-82
2022/09/21 04:06:38;;;;;;;20.05;18.90;;;;;;;;;;5084900;28;20207;-82
2022/09/21 04:09:05;;;;;;;19.35;18.35;;;;;;;;;;5085328;28;20207;-82
2022/09/21 04:11:32;;;;;;;19.48;18.38;;;;;;;;;;5084252;28;20244;-82
2022/09/21 04:14:01;;;;;;;19.55;18.25;;;;;;;;;;5083432;28;20232;-82
2022/09/21 04:16:29;;;;;;;21.00;19.60;;;;;;;;;;5084873;28;20219;-82
2022/09/21 04:18:56;;;;;;;20.88;19.40;;;;;;;;;;5084644;28;20228;-82
2022/09/21 04:21:24;;;;;;;19.55;18.45;;;;;;;;;;5084713;28;20202;-82
2022/09/21 04:23:51;;;;;;;20.67;19.58;;;;;;;;;;5084639;28;20233;-81
2022/09/21 04:26:22;;;;;;;19.77;18.58;;;;;;;;;;5084338;28;20213;-82
2022/09/21 04:28:50;;;;;;;20.02;18.92;;;;;;;;;;5085061;28;20202;-82
2022/09/21 04:31:19;;;;;;;19.98;18.58;;;;;;;;;;5084550;28;20205;-82
2022/09/21 04:33:49;;;;;;;21.95;20.15;;;;;;;;;;5083900;28;20221;-82
2022/09/21 04:36:16;;;;;;;19.33;18.13;;;;;;;;;;5083596;28;20230;-82
2022/09/21 04:38:44;;;;;;;19.20;17.75;;;;;;;;;;5084927;28;20226;-82
2022/09/21 04:41:11;;;;;;;20.17;18.80;;;;;;;;;;5083406;28;20213;-82
2022/09/21 04:43:39;;;;;;;21.42;19.95;;;;;;;;;;5084054;28;20228;-82
2022/09/21 04:46:07;;;;;;;20.17;18.98;;;;;;;;;;5083367;28;20209;-82
2022/09/21 04:48:36;;;;;;;20.75;19.45;;;;;;;;;;5084079;28;20201;-82
2022/09/21 04:51:05;;;;;;;20.60;19.40;;;;;;;;;;5084025;28;20210;-82
2022/09/21 04:53:32;;;;;;;19.98;18.92;;;;;;;;;;5083691;28;20324;-82
2022/09/21 04:55:59;;;;;;;22.17;20.70;;;;;;;;;;5083064;28;20219;-82
2022/09/21 04:58:27;;;;;;;23.60;22.10;;;;;;;;;;5083561;28;20232;-82
2022/09/21 05:00:55;;;;;;;21.90;20.50;;;;;;;;;;5084177;28;20201;-83
2022/09/21 05:03:23;;;;;;;20.95;19.70;;;;;;;;;;5083181;28;20230;-82
2022/09/21 05:05:52;;;;;;;20.88;19.63;;;;;;;;;;5083313;28;20200;-82
2022/09/21 05:10:01;;;;;;;22.05;20.73;;;;;;;;;;5083491;28;20217;-82
2022/09/21 05:11:08;;;;;;;23.10;21.30;;;;;;;;;;5082995;28;20630;-82
2022/09/21 05:13:35;;;;;;;21.65;20.45;;;;;;;;;;5083414;28;20226;-82
2022/09/21 05:16:03;;;;;;;22.90;21.33;;;;;;;;;;5079203;28;20235;-82
2022/09/21 05:18:31;;;;;;;21.13;20.00;;;;;;;;;;5076208;28;20233;-78
2022/09/21 05:21:00;;;;;;;23.40;21.48;;;;;;;;;;5075610;28;20221;-79
2022/09/21 05:23:28;;;;;;;22.48;21.25;;;;;;;;;;5075116;28;20240;-78
2022/09/21 05:25:55;;;;;;;23.05;21.55;;;;;;;;;;5074889;28;20204;-79
2022/09/21 05:28:24;;;;;;;23.17;21.60;;;;;;;;;;5074695;28;20199;-78
2022/09/21 05:30:54;;;;;;;23.05;21.55;;;;;;;;;;5074414;28;20186;-80
2022/09/21 05:33:21;;;;;;;22.50;21.27;;;;;;;;;;5074972;28;20229;-78
2022/09/21 05:35:57;;;;;;;24.40;23.00;;;;;;;;;;5074539;28;20211;-78
2022/09/21 05:38:26;;;;;;;23.25;21.75;;;;;;;;;;5074501;28;20214;-79
2022/09/21 05:40:54;;;;;;;24.50;22.88;;;;;;;;;;5074275;28;20224;-78
2022/09/21 05:43:21;;;;;;;24.83;22.90;;;;;;;;;;5074425;28;20291;-78
2022/09/21 05:45:52;;;;;;;25.70;23.33;;;;;;;;;;5074112;28;20210;-79
2022/09/21 05:48:21;;;;;;;22.38;21.17;;;;;;;;;;5075088;28;20190;-78
2022/09/21 05:50:56;;;;;;;23.13;21.73;;;;;;;;;;5073708;28;20210;-77
2022/09/21 05:53:31;;;;;;;24.27;22.77;;;;;;;;;;5074321;28;20225;-78
2022/09/21 05:55:59;;;;;;;22.77;21.48;;;;;;;;;;5074426;28;20181;-78
2022/09/21 05:58:32;;;;;;;22.80;21.30;;;;;;;;;;5073721;28;20268;-77
2022/09/21 06:01:05;;;;;;;24.30;22.70;;;;;;;;;;5073317;28;20673;-79
2022/09/21 06:03:35;;;;;;;23.55;21.77;;;;;;;;;;5073706;28;20230;-79
2022/09/21 06:06:03;;;;;;;24.45;22.75;;;;;;;;;;5073686;28;20209;-78
2022/09/21 06:08:32;;;;;;;23.98;22.60;;;;;;;;;;5073081;28;20206;-77
2022/09/21 06:10:59;;;;;;;25.88;23.85;;;;;;;;;;5073361;28;20262;-79
2022/09/21 06:13:27;;;;;;;26.38;24.35;;;;;;;;;;5073473;28;20232;-79
2022/09/21 06:15:55;;;;;;;25.13;23.52;;;;;;;;;;5073997;28;20307;-78
2022/09/21 06:18:22;;;;;;;26.67;24.65;;;;;;;;;;5073745;28;20229;-78
2022/09/21 06:20:49;;;;;;;25.27;23.48;;;;;;;;;;5073863;28;20697;-79
2022/09/21 06:23:17;;;;;;;24.95;23.35;;;;;;;;;;5073433;28;20234;-79
2022/09/21 06:25:45;;;;;;;26.45;24.40;;;;;;;;;;5073520;28;20210;-78
2022/09/21 06:28:14;;;;;;;25.50;23.55;;;;;;;;;;5073974;28;20193;-78
2022/09/21 06:30:43;;;;;;;27.48;25.20;;;;;;;;;;5073837;28;20542;-79
2022/09/21 06:33:11;;;;;;;35.75;32.40;;;;;;;;;;5073447;28;20694;-78
2022/09/21 06:35:39;;;;;;;36.78;32.92;;;;;;;;;;5074154;28;20212;-78
2022/09/21 06:38:07;;;;;;;31.10;28.75;;;;;;;;;;5074470;28;20226;-79
2022/09/21 06:40:35;;;;;;;32.53;29.65;;;;;;;;;;5073802;28;20215;-78
2022/09/21 06:43:05;;;;;;;32.77;30.07;;;;;;;;;;5080250;28;20229;-78
2022/09/21 06:45:33;;;;;;;34.47;31.35;;;;;;;;;;5086307;28;20447;-78
2022/09/21 06:48:00;;;;;;;35.45;32.47;;;;;;;;;;5074275;28;20211;-78
2022/09/21 06:50:27;;;;;;;34.20;31.65;;;;;;;;;;5074168;28;20210;-78
2022/09/21 06:52:55;;;;;;;35.92;32.95;;;;;;;;;;5072682;28;20223;-78
2022/09/21 06:55:22;;;;;;;35.03;32.42;;;;;;;;;;5073916;28;20682;-78
2022/09/21 06:57:50;;;;;;;33.30;30.73;;;;;;;;;;5073675;28;20210;-78
2022/09/21 07:00:19;;;;;;;33.67;31.23;;;;;;;;;;5073901;28;20293;-79
2022/09/21 07:02:47;;;;;;;33.58;30.98;;;;;;;;;;5073246;28;20226;-79
2022/09/21 07:05:14;;;;;;;35.45;32.47;;;;;;;;;;5073222;28;20214;-78
2022/09/21 07:07:42;;;;;;;34.70;31.97;;;;;;;;;;5073462;28;20210;-78
2022/09/21 07:10:09;;;;;;;34.58;31.90;;;;;;;;;;5072596;28;20930;-78
2022/09/21 07:12:37;;;;;;;33.93;31.23;;;;;;;;;;5072842;28;20230;-79
2022/09/21 07:15:05;;;;;;;34.30;31.73;;;;;;;;;;5071887;28;20472;-79
2022/09/21 07:17:34;;;;;;;34.10;31.50;;;;;;;;;;5073149;28;20616;-79
2022/09/21 07:20:02;;;;;;;33.65;31.05;;;;;;;;;;5078072;28;20482;-78
2022/09/21 07:22:29;;;;;;;31.38;29.17;;;;;;;;;;5077305;28;20234;-79
2022/09/21 07:24:57;;;;;;;36.00;32.80;;;;;;;;;;5077554;28;20315;-79
2022/09/21 07:27:25;;;;;;;34.50;31.90;;;;;;;;;;5077510;28;20450;-79
2022/09/21 07:29:52;;;;;;;33.67;30.97;;;;;;;;;;5077788;28;20456;-78
2022/09/21 07:32:21;;;;;;;33.30;30.77;;;;;;;;;;5076756;28;20494;-78
2022/09/21 07:34:49;;;;;;;32.20;29.70;;;;;;;;;;5077230;28;20450;-78
2022/09/21 07:37:17;;;;;;;32.35;29.85;;;;;;;;;;5077707;28;20436;-78
2022/09/21 07:39:44;;;;;;;36.20;33.25;;;;;;;;;;5076678;28;20238;-79
2022/09/21 07:42:11;;;;;;;35.53;32.72;;;;;;;;;;5077862;28;20222;-85
2022/09/21 07:44:40;;;;;;;35.97;33.10;;;;;;;;;;5074310;28;20561;-84
2022/09/21 07:47:07;;;;;;;33.17;30.77;;;;;;;;;;5080402;28;20878;-83
2022/09/21 07:49:35;;;;;;;34.97;32.08;;;;;;;;;;5080385;28;20472;-83
2022/09/21 07:52:04;;;;;;;36.03;32.77;;;;;;;;;;5081759;28;20223;-82
2022/09/21 07:54:32;;;;;;;34.07;31.50;;;;;;;;;;5083001;28;20444;-79
2022/09/21 07:59:44;;;;;;;33.57;30.60;;;;;;;;;;5087681;28;20471;-82
2022/09/21 08:02:12;;;;;;;34.10;31.40;;;;;;;;;;5082917;28;20476;-80
2022/09/21 08:04:39;;;;;;;34.60;31.80;;;;;;;;;;5079545;28;20456;-79
2022/09/21 08:07:08;;;;;;;33.90;31.03;;;;;;;;;;5078900;28;20458;-82
2022/09/21 08:09:35;;;;;;;33.90;31.30;;;;;;;;;;5080882;28;20453;-82
2022/09/21 08:12:03;;;;;;;33.90;31.23;;;;;;;;;;5080404;28;20480;-81
2022/09/21 08:14:30;;;;;;;33.90;31.10;;;;;;;;;;5079928;28;20454;-80
2022/09/21 08:16:57;;;;;;;31.60;29.20;;;;;;;;;;5081687;28;20450;-83
2022/09/21 08:19:25;;;;;;;33.03;29.83;;;;;;;;;;5080195;28;20485;-80
2022/09/21 08:21:52;;;;;;;32.87;30.07;;;;;;;;;;5079231;28;20449;-81
2022/09/21 08:24:21;;;;;;;29.50;27.20;;;;;;;;;;5079345;28;20805;-80
2022/09/21 08:26:51;;;;;;;29.10;27.10;;;;;;;;;;5078252;28;20446;-80
2022/09/21 08:29:18;;;;;;;29.97;27.27;;;;;;;;;;5078247;28;20449;-79
2022/09/21 08:31:45;;;;;;;28.30;26.30;;;;;;;;;;5077940;28;20514;-80
2022/09/21 08:34:13;;;;;;;30.37;28.17;;;;;;;;;;5078349;28;20443;-79
2022/09/21 08:36:40;;;;;;;28.50;26.23;;;;;;;;;;5077973;28;20432;-79
2022/09/21 08:39:08;;;;;;;25.97;24.07;;;;;;;;;;5078965;28;20482;-80
2022/09/21 08:41:47;;;;;;;26.57;24.70;;;;;;;;;;5078362;28;20445;-79
2022/09/21 08:44:17;;;;;;;28.67;26.20;;;;;;;;;;5078534;28;20416;-79
2022/09/21 08:46:46;;;;;;;25.87;24.07;;;;;;;;;;5078448;28;20445;-81
2022/09/21 08:49:15;;;;;;;28.77;26.50;;;;;;;;;;5078867;28;20465;-79
2022/09/21 08:51:45;;;;;;;26.93;24.97;;;;;;;;;;5077756;28;20959;-80
2022/09/21 08:54:15;;;;;;;28.73;26.53;;;;;;;;;;5077681;28;20954;-80
2022/09/21 08:56:44;;;;;;;26.00;23.60;;;;;;;;;;5078122;28;20449;-79
2022/09/21 08:59:14;;;;;;;26.43;24.30;;;;;;;;;;5077601;28;20480;-79
2022/09/21 09:01:51;;;;;;;27.60;25.50;;;;;;;;;;5077655;28;20449;-83
2022/09/21 09:04:27;;;;;;;25.70;24.00;;;;;;;;;;5077299;28;20488;-80
2022/09/21 09:07:02;;;;;;;26.30;24.50;;;;;;;;;;5077805;28;20407;-80
2022/09/21 09:09:47;;;;;;;27.17;25.37;;;;;;;;;;5077939;28;20898;-80
2022/09/21 09:12:21;;;;;;;25.83;24.13;;;;;;;;;;5077520;28;20476;-80
2022/09/21 09:14:59;;;;;;;27.40;25.57;;;;;;;;;;5077780;28;20532;-80
2022/09/21 09:17:30;;;;;;;26.00;24.13;;;;;;;;;;5077337;28;20430;-79
2022/09/21 09:20:00;;;;;;;27.07;25.37;;;;;;;;;;5077740;28;20507;-84
2022/09/21 09:22:30;;;;;;;25.00;23.60;;;;;;;;;;5079176;28;20495;-82
2022/09/21 09:24:59;;;;;;;25.80;24.03;;;;;;;;;;5077665;28;20468;-79
2022/09/21 09:27:29;;;;;;;25.00;23.17;;;;;;;;;;5077575;28;20422;-80
2022/09/21 09:29:59;;;;;;;25.30;23.70;;;;;;;;;;5078021;28;20928;-80
2022/09/21 09:32:30;;;;;;;25.50;23.47;;;;;;;;;;5077057;28;20484;-80
2022/09/21 09:35:07;;;;;;;28.93;26.07;;;;;;;;;;5076976;28;20515;-83
2022/09/21 09:37:37;;;;;;;24.10;22.50;;;;;;;;;;5080554;28;20469;-80
2022/09/21 09:40:07;;;;;;;25.57;23.90;;;;;;;;;;5083053;28;20469;-80
2022/09/21 09:42:50;;;;;;;27.07;25.00;;;;;;;;;;5081185;28;20502;-82
2022/09/21 09:45:33;;;;;;;26.40;24.23;;;;;;;;;;5085258;28;20425;-84
2022/09/21 09:48:06;;;;;;;26.10;24.13;;;;;;;;;;5084676;28;20475;-83
2022/09/21 09:50:35;;;;;;;24.53;22.90;;;;;;;;;;5078827;28;20487;-80
2022/09/21 09:53:05;;;;;;;24.67;22.83;;;;;;;;;;5077983;28;20455;-77
2022/09/21 09:55:37;;;;;;;26.90;24.57;;;;;;;;;;5072941;28;20445;-78
2022/09/21 09:58:06;;;;;;;25.40;23.50;;;;;;;;;;5073649;28;20491;-78
2022/09/21 10:00:33;;;;;;;26.20;24.40;;;;;;;;;;5079412;28;20486;-84
2022/09/21 10:03:00;;;;;;;26.67;25.10;;;;;;;;;;5079397;28;20827;-77
2022/09/21 10:05:33;;;;;;;26.40;24.80;;;;;;;;;;5074458;28;20423;-78
2022/09/21 10:08:00;;;;;;;25.80;24.07;;;;;;;;;;5074244;28;20469;-78
2022/09/21 10:10:33;;;;;;;25.03;23.33;;;;;;;;;;5075635;28;20420;-79
2022/09/21 10:13:07;;;;;;;25.33;23.53;;;;;;;;;;5073323;28;20481;-78
2022/09/21 10:15:34;;;;;;;24.20;22.67;;;;;;;;;;5074221;28;20453;-77
2022/09/21 10:18:06;;;;;;;24.30;22.80;;;;;;;;;;5074426;28;20426;-77
2022/09/21 10:20:33;;;;;;;24.20;22.50;;;;;;;;;;5073636;28;20465;-78
2022/09/21 10:23:02;;;;;;;23.80;22.30;;;;;;;;;;5073577;28;20496;-78
2022/09/21 10:25:30;;;;;;;23.70;22.50;;;;;;;;;;5075489;28;20507;-78
2022/09/21 10:27:58;;;;;;;24.20;22.30;;;;;;;;;;5074826;28;20453;-78
2022/09/21 10:30:38;;;;;;;26.57;24.60;;;;;;;;;;5075935;28;20481;-81
2022/09/21 10:33:18;;;;;;;25.97;24.37;;;;;;;;;;5075425;28;20489;-78
2022/09/21 10:35:50;;;;;;;26.30;24.50;;;;;;;;;;5072780;28;20404;-78
2022/09/21 10:38:18;;;;;;;25.50;23.80;;;;;;;;;;5073527;28;20891;-77
2022/09/21 10:40:46;;;;;;;27.00;25.60;;;;;;;;;;5073461;28;20493;-76
2022/09/21 10:43:23;;;;;;;26.77;25.03;;;;;;;;;;5071663;28;20490;-76
2022/09/21 10:45:55;;;;;;;26.57;24.90;;;;;;;;;;5075671;28;20435;-78
2022/09/21 10:48:23;;;;;;;25.80;24.37;;;;;;;;;;5073921;28;20434;-77
2022/09/21 10:50:52;;;;;;;25.43;24.13;;;;;;;;;;5073484;28;20451;-78
2022/09/21 10:53:23;;;;;;;26.53;24.80;;;;;;;;;;5073798;28;20477;-77
2022/09/21 10:55:53;;;;;;;24.63;22.97;;;;;;;;;;5078614;28;20451;-77
2022/09/21 10:58:20;;;;;;;23.90;22.33;;;;;;;;;;5078437;28;20449;-83
2022/09/21 11:00:50;;;;;;;23.40;22.10;;;;;;;;;;5087023;28;20481;-86
2022/09/21 11:03:38;;;;;;;23.67;22.10;;;;;;;;;;5087841;28;20469;-85
2022/09/21 11:06:07;;;;;;;23.00;21.73;;;;;;;;;;5088288;28;20461;-85
2022/09/21 11:08:38;;;;;;;22.63;20.90;;;;;;;;;;5086760;28;20458;-86
2022/09/21 11:11:14;;;;;;;22.43;21.03;;;;;;;;;;5087475;28;20455;-82
2022/09/21 11:13:45;;;;;;;22.67;21.27;;;;;;;;;;5087032;28;20469;-86
2022/09/21 11:16:15;;;;;;;22.87;20.87;;;;;;;;;;5087065;28;20400;-85
2022/09/21 11:18:48;;;;;;;23.63;22.23;;;;;;;;;;5087908;28;20405;-85
2022/09/21 11:21:18;;;;;;;22.17;20.77;;;;;;;;;;5087108;28;20485;-85
2022/09/21 11:23:50;;;;;;;21.83;20.30;;;;;;;;;;5087198;28;20484;-85
2022/09/21 11:26:28;;;;;;;22.00;20.30;;;;;;;;;;5084366;28;20898;-85
2022/09/21 11:28:58;;;;;;;20.03;18.80;;;;;;;;;;5087260;28;20417;-85
2022/09/21 11:31:41;;;;;;;21.10;19.70;;;;;;;;;;5086242;28;20434;-86
2022/09/21 11:34:38;;;;;;;20.90;19.60;;;;;;;;;;5074813;28;20428;-85
2022/09/21 11:37:13;;;;;;;20.93;19.53;;;;;;;;;;5024753;28;20502;-76
2022/09/21 11:39:47;;;;;;;20.60;19.30;;;;;;;;;;5065556;28;20456;-77
2022/09/21 11:42:21;;;;;;;21.00;19.90;;;;;;;;;;5075794;28;20447;-77
2022/09/21 11:44:54;;;;;;;20.57;19.33;;;;;;;;;;5084546;28;21024;-85
2022/09/21 11:47:36;;;;;;;20.70;19.50;;;;;;;;;;5080150;28;20479;-86
2022/09/21 11:50:11;;;;;;;20.10;18.40;;;;;;;;;;5075011;28;20454;-77
2022/09/21 11:52:46;;;;;;;19.50;18.30;;;;;;;;;;5076372;28;20813;-77
2022/09/21 11:55:27;;;;;;;20.60;19.20;;;;;;;;;;5076753;28;20481;-77
2022/09/21 11:57:56;;;;;;;21.13;19.73;;;;;;;;;;5076327;28;20405;-77
2022/09/21 12:00:25;;;;;;;20.70;19.47;;;;;;;;;;5076309;28;20481;-77
2022/09/21 12:03:08;;;;;;;21.23;19.80;;;;;;;;;;5075309;28;20526;-77
2022/09/21 12:05:38;;;;;;;21.37;20.20;;;;;;;;;;5075435;28;20430;-77
2022/09/21 12:08:15;;;;;;;20.60;19.50;;;;;;;;;;5075984;28;20926;-77
2022/09/21 12:10:48;;;;;;;21.17;19.67;;;;;;;;;;5076267;28;20785;-77
2022/09/21 12:13:22;;;;;;;22.40;20.83;;;;;;;;;;5075996;28;20466;-77
2022/09/21 12:15:54;;;;;;;21.70;20.20;;;;;;;;;;5076004;28;20436;-77
2022/09/21 12:18:24;;;;;;;22.17;20.87;;;;;;;;;;5075974;28;20434;-77
2022/09/21 12:20:57;;;;;;;22.10;20.40;;;;;;;;;;5079184;28;20499;-80
2022/09/21 12:23:28;;;;;;;21.80;20.60;;;;;;;;;;5076901;28;20493;-77
2022/09/21 12:25:57;;;;;;;20.23;18.90;;;;;;;;;;5076046;28;20444;-77
2022/09/21 12:28:27;;;;;;;20.40;19.13;;;;;;;;;;5075736;28;20435;-77
2022/09/21 12:30:59;;;;;;;22.33;20.47;;;;;;;;;;5075460;28;20939;-77
2022/09/21 12:33:32;;;;;;;20.93;19.60;;;;;;;;;;5075836;28;20470;-77
2022/09/21 12:36:03;;;;;;;21.13;19.63;;;;;;;;;;5075353;28;20468;-77
2022/09/21 12:38:35;;;;;;;22.60;20.47;;;;;;;;;;5075748;28;20531;-78
2022/09/21 12:41:06;;;;;;;21.07;19.57;;;;;;;;;;5075210;28;20466;-77
2022/09/21 12:43:36;;;;;;;20.80;19.50;;;;;;;;;;5075395;28;20477;-77
2022/09/21 12:46:06;;;;;;;21.27;19.70;;;;;;;;;;5075330;28;20454;-77
2022/09/21 12:48:35;;;;;;;21.03;19.30;;;;;;;;;;5075305;28;20939;-78
2022/09/21 12:51:05;;;;;;;21.67;20.27;;;;;;;;;;5074585;28;20822;-78
2022/09/21 12:53:36;;;;;;;22.47;20.87;;;;;;;;;;5075809;28;20468;-77
2022/09/21 12:56:06;;;;;;;20.70;19.40;;;;;;;;;;5075073;28;20433;-77
2022/09/21 12:58:44;;;;;;;20.50;19.10;;;;;;;;;;5074103;28;20457;-77
2022/09/21 13:01:16;;;;;;;23.00;21.40;;;;;;;;;;5074310;28;20989;-77
2022/09/21 13:03:51;;;;;;;21.20;20.00;;;;;;;;;;5074614;28;20482;-77
2022/09/21 13:06:31;;;;;;;23.13;21.10;;;;;;;;;;5075220;28;20899;-78
2022/09/21 13:09:02;;;;;;;21.33;19.73;;;;;;;;;;5077617;28;20432;-79
2022/09/21 13:11:29;;;;;;;23.00;21.30;;;;;;;;;;5076771;28;20853;-78
2022/09/21 13:13:58;;;;;;;22.00;20.53;;;;;;;;;;5075141;28;20479;-76
2022/09/21 13:16:28;;;;;;;22.17;20.50;;;;;;;;;;5078072;28;20474;-77
2022/09/21 13:18:57;;;;;;;22.03;20.73;;;;;;;;;;5075234;28;20440;-77
2022/09/21 13:21:26;;;;;;;22.33;20.90;;;;;;;;;;5074660;28;20487;-82
2022/09/21 13:23:56;;;;;;;22.27;20.97;;;;;;;;;;5075419;28;20903;-78
2022/09/21 13:26:32;;;;;;;21.80;20.30;;;;;;;;;;5074449;28;20846;-77
2022/09/21 13:29:08;;;;;;;21.93;20.73;;;;;;;;;;5074923;28;20530;-77
2022/09/21 13:31:56;;;;;;;20.67;19.60;;;;;;;;;;5074661;28;20441;-77
2022/09/21 13:34:33;;;;;;;21.40;20.10;;;;;;;;;;5074755;28;20920;-77
2022/09/21 13:37:34;;;;;;;23.00;21.60;;;;;;;;;;5074389;28;20432;-77
2022/09/21 13:40:24;;;;;;;22.27;20.83;;;;;;;;;;5075008;28;20437;-75
2022/09/21 13:42:54;;;;;;;27.70;25.47;;;;;;;;;;5070318;28;20471;-81
2022/09/21 13:45:40;;;;;;;20.73;19.40;;;;;;;;;;5078322;28;20432;-81
2022/09/21 13:48:14;;;;;;;22.00;20.50;;;;;;;;;;5083894;28;20454;-84
2022/09/21 13:50:43;;;;;;;24.83;22.83;;;;;;;;;;5074332;28;20466;-77
2022/09/21 13:53:18;;;;;;;25.77;22.93;;;;;;;;;;5070606;28;20461;-77
2022/09/21 13:55:50;;;;;;;22.20;20.70;;;;;;;;;;5073837;28;20446;-76
2022/09/21 13:58:22;;;;;;;23.73;22.07;;;;;;;;;;5073134;28;20444;-77
2022/09/21 14:00:53;;;;;;;22.50;21.00;;;;;;;;;;5072787;28;20507;-77
2022/09/21 14:03:22;;;;;;;22.63;20.90;;;;;;;;;;5073651;28;20507;-78
2022/09/21 14:05:51;;;;;;;22.57;21.10;;;;;;;;;;5073330;28;20822;-77
2022/09/21 14:08:21;;;;;;;22.43;20.93;;;;;;;;;;5074409;28;20456;-76
2022/09/21 14:10:51;;;;;;;23.10;21.83;;;;;;;;;;5073920;28;20463;-76
2022/09/21 14:13:31;;;;;;;23.60;22.00;;;;;;;;;;5073446;28;20507;-76
2022/09/21 14:16:13;;;;;;;22.27;21.07;;;;;;;;;;5076096;28;20432;-80
2022/09/21 14:18:41;;;;;;;23.00;21.50;;;;;;;;;;5085057;28;20450;-80
2022/09/21 14:21:16;;;;;;;22.63;21.33;;;;;;;;;;5082066;28;20492;-77
2022/09/21 14:24:03;;;;;;;22.13;20.73;;;;;;;;;;5072688;28;20470;-76
2022/09/21 14:26:34;;;;;;;23.07;21.60;;;;;;;;;;5073454;28;20452;-76
2022/09/21 14:29:08;;;;;;;26.03;23.77;;;;;;;;;;5072988;28;20420;-76
2022/09/21 14:31:38;;;;;;;22.27;20.60;;;;;;;;;;5073229;28;20415;-76
2022/09/21 14:34:11;;;;;;;22.77;21.00;;;;;;;;;;5072494;28;20468;-76
2022/09/21 14:36:40;;;;;;;24.37;22.47;;;;;;;;;;5072309;28;20442;-76
2022/09/21 14:39:14;;;;;;;23.67;22.00;;;;;;;;;;5071053;28;20426;-76